Time;durP1;ratioP1;P1;durP2;ratioP2;P2;SDS_P1;SDS_P2;PMS_P1;PMS_P2;Temp;Humidity;BMP_temperature;BMP_pressure;BME280_temperature;BME280_humidity;BME280_pressure;Samples;Min_cycle;Max_cycle;Signal;HPM_P1;HPM_P2
2021/06/24 00:00:57;;;;;;;19.52;6.03;;;;;;;23.51;73.03;97843.16;5051502;28;20497;-79
2021/06/24 00:03:27;;;;;;;16.52;6.00;;;;;;;23.42;73.25;97845.47;5051183;28;20503;-79
2021/06/24 00:05:53;;;;;;;19.63;6.10;;;;;;;23.35;71.97;97834.19;5051349;28;20033;-78
2021/06/24 00:08:19;;;;;;;17.52;6.60;;;;;;;23.36;71.97;97842.19;5051824;28;20025;-80
2021/06/24 00:10:45;;;;;;;16.90;5.47;;;;;;;23.37;71.86;97832.59;5052177;28;20559;-79
2021/06/24 00:13:11;;;;;;;17.05;5.47;;;;;;;23.40;71.35;97840.25;5052644;28;20021;-78
2021/06/24 00:15:37;;;;;;;11.15;5.13;;;;;;;23.44;72.44;97838.31;5051308;28;20032;-77
2021/06/24 00:18:03;;;;;;;15.00;5.75;;;;;;;23.55;72.54;97832.03;5051114;28;20025;-78
2021/06/24 00:20:29;;;;;;;14.82;5.90;;;;;;;23.44;72.15;97829.94;5051215;28;20023;-79
2021/06/24 00:22:55;;;;;;;12.15;5.63;;;;;;;23.46;73.21;97826.75;5050982;28;20057;-78
2021/06/24 00:25:20;;;;;;;15.15;5.88;;;;;;;23.43;72.89;97828.31;5050998;28;20021;-78
2021/06/24 00:27:46;;;;;;;13.98;6.20;;;;;;;23.42;73.09;97835.09;5052274;28;20041;-79
2021/06/24 00:30:12;;;;;;;17.95;5.97;;;;;;;23.38;71.47;97827.81;5051091;28;20476;-79
2021/06/24 00:32:37;;;;;;;31.33;6.90;;;;;;;23.32;72.87;97826.56;5051454;28;20570;-78
2021/06/24 00:35:04;;;;;;;27.08;5.45;;;;;;;23.40;72.98;97826.28;5050981;28;20112;-78
2021/06/24 00:37:30;;;;;;;25.25;6.93;;;;;;;23.38;73.10;97823.06;5057664;28;20029;-78
2021/06/24 00:39:56;;;;;;;11.38;5.75;;;;;;;23.25;73.74;97818.09;5063249;28;20032;-78
2021/06/24 00:42:23;;;;;;;10.00;5.60;;;;;;;23.33;73.41;97825.38;5052702;28;20029;-77
2021/06/24 00:44:48;;;;;;;17.63;5.97;;;;;;;23.19;72.92;97828.81;5052582;28;20025;-78
2021/06/24 00:47:14;;;;;;;17.58;5.60;;;;;;;23.11;72.64;97827.13;5050437;28;20036;-78
2021/06/24 00:49:39;;;;;;;15.02;6.57;;;;;;;22.90;73.04;97819.28;5052589;28;20029;-79
2021/06/24 00:52:05;;;;;;;14.32;5.72;;;;;;;22.74;74.17;97832.63;5052917;28;20411;-78
2021/06/24 00:54:31;;;;;;;16.55;7.20;;;;;;;22.70;74.49;97839.34;5050687;28;20056;-78
2021/06/24 00:56:56;;;;;;;20.15;5.43;;;;;;;22.68;75.09;97830.56;5051716;28;20862;-78
2021/06/24 00:59:22;;;;;;;19.58;6.15;;;;;;;22.58;75.48;97829.22;5051047;28;20016;-78
2021/06/24 01:01:48;;;;;;;17.52;5.93;;;;;;;22.49;74.98;97825.09;5050427;28;20036;-78
2021/06/24 01:04:19;;;;;;;20.13;5.65;;;;;;;22.42;75.38;97829.38;5051385;28;20044;-78
2021/06/24 01:06:45;;;;;;;25.42;8.57;;;;;;;22.42;75.12;97826.59;5050356;28;20137;-77
2021/06/24 01:09:10;;;;;;;19.00;5.88;;;;;;;22.55;76.04;97826.38;5050250;28;20200;-78
2021/06/24 01:11:36;;;;;;;21.58;5.95;;;;;;;22.51;74.94;97828.28;5050094;28;20052;-76
2021/06/24 01:14:01;;;;;;;15.27;5.32;;;;;;;22.43;75.06;97822.59;5051848;28;20165;-77
2021/06/24 01:16:27;;;;;;;16.90;5.95;;;;;;;22.48;74.32;97823.47;5051026;28;20017;-77
2021/06/24 01:18:52;;;;;;;16.00;5.82;;;;;;;22.47;74.79;97817.09;5049981;28;20025;-77
2021/06/24 01:21:17;;;;;;;21.90;7.10;;;;;;;22.60;73.37;97826.03;5050489;28;20021;-78
2021/06/24 01:23:44;;;;;;;20.05;6.28;;;;;;;22.65;72.98;97829.31;5051171;28;20033;-78
2021/06/24 01:26:10;;;;;;;16.90;6.03;;;;;;;22.67;72.67;97826.16;5067734;28;20032;-76
2021/06/24 01:28:35;;;;;;;13.38;5.38;;;;;;;22.69;73.33;97821.81;5069979;28;20492;-77
2021/06/24 01:31:02;;;;;;;17.88;5.47;;;;;;;22.71;72.35;97821.44;5069828;28;20031;-78
2021/06/24 01:33:28;;;;;;;14.85;6.32;;;;;;;22.70;72.95;97831.78;5060310;28;20115;-79
2021/06/24 01:36:03;;;;;;;12.35;5.57;;;;;;;22.53;73.85;97837.88;5061072;28;20024;-80
2021/06/24 01:38:28;;;;;;;9.68;5.00;;;;;;;22.42;74.81;97829.38;5069762;28;20052;-81
2021/06/24 01:40:54;;;;;;;20.48;6.30;;;;;;;22.42;74.85;97826.59;5069601;28;20097;-78
2021/06/24 01:43:19;;;;;;;20.17;6.10;;;;;;;22.59;73.79;97836.38;5060821;28;20178;-79
2021/06/24 01:45:51;;;;;;;18.45;6.03;;;;;;;22.53;74.00;97831.50;5053365;28;20497;-82
2021/06/24 01:48:16;;;;;;;8.05;4.57;;;;;;;22.42;74.20;97829.38;5063297;28;20067;-82
2021/06/24 01:50:42;;;;;;;20.95;6.82;;;;;;;22.46;74.85;97837.00;5051235;28;20067;-79
2021/06/24 01:53:08;;;;;;;19.50;6.57;;;;;;;22.45;74.80;97829.78;5049610;28;20029;-80
2021/06/24 01:55:35;;;;;;;16.83;5.75;;;;;;;22.24;75.20;97833.84;5049332;28;20030;-79
2021/06/24 01:58:06;;;;;;;25.42;6.93;;;;;;;22.05;76.56;97833.16;5048986;28;20029;-79
2021/06/24 02:00:31;;;;;;;20.15;5.57;;;;;;;22.15;76.22;97841.69;5050165;28;20021;-79
2021/06/24 02:02:57;;;;;;;20.88;8.32;;;;;;;22.10;76.24;97844.78;5049125;28;20025;-80
2021/06/24 02:05:23;;;;;;;22.10;6.75;;;;;;;22.00;76.81;97839.84;5049389;28;20029;-80
2021/06/24 02:07:48;;;;;;;15.85;5.15;;;;;;;22.05;77.74;97849.88;5050721;28;20048;-79
2021/06/24 02:10:15;;;;;;;22.30;6.07;;;;;;;21.96;78.85;97847.34;5050198;28;20028;-79
2021/06/24 02:12:41;;;;;;;18.00;6.20;;;;;;;21.97;77.39;97842.56;5050165;28;20067;-80
2021/06/24 02:15:09;;;;;;;21.83;7.72;;;;;;;21.96;78.18;97836.19;5050218;28;20429;-78
2021/06/24 02:17:35;;;;;;;18.15;7.28;;;;;;;21.93;78.07;97836.94;5048333;28;20393;-80
2021/06/24 02:20:01;;;;;;;25.90;8.82;;;;;;;21.82;78.44;97830.38;5050308;28;20029;-80
2021/06/24 02:22:26;;;;;;;17.70;7.38;;;;;;;21.91;79.79;97835.72;5049847;28;20108;-80
2021/06/24 02:24:51;;;;;;;19.40;7.80;;;;;;;22.03;77.76;97841.88;5049083;28;20033;-80
2021/06/24 02:27:17;;;;;;;13.80;6.55;;;;;;;21.99;77.99;97829.09;5048773;28;20032;-80
2021/06/24 02:29:44;;;;;;;24.75;9.00;;;;;;;21.91;77.61;97817.00;5050012;28;20090;-80
2021/06/24 02:32:10;;;;;;;27.08;8.18;;;;;;;21.93;78.56;97831.38;5049139;28;20029;-80
2021/06/24 02:34:36;;;;;;;18.30;6.65;;;;;;;21.82;78.29;97831.19;5050263;28;20120;-79
2021/06/24 02:37:01;;;;;;;19.08;7.47;;;;;;;21.74;78.47;97828.66;5049066;28;20440;-79
2021/06/24 02:39:27;;;;;;;22.70;7.03;;;;;;;21.94;78.34;97832.19;5050530;28;20033;-81
2021/06/24 02:41:52;;;;;;;19.02;7.40;;;;;;;21.88;78.33;97826.94;5050652;28;20028;-79
2021/06/24 02:44:18;;;;;;;18.58;7.10;;;;;;;21.76;79.38;97832.66;5048808;28;20717;-81
2021/06/24 02:46:43;;;;;;;20.38;7.68;;;;;;;21.68;80.27;97830.91;5066828;28;20038;-78
2021/06/24 02:49:08;;;;;;;17.15;6.40;;;;;;;21.60;80.03;97833.94;5049267;28;20151;-80
2021/06/24 02:51:34;;;;;;;16.67;6.60;;;;;;;21.58;80.71;97830.75;5052283;28;20507;-80
2021/06/24 02:53:59;;;;;;;24.95;6.80;;;;;;;21.53;80.16;97819.88;5069947;28;20024;-81
2021/06/24 02:56:25;;;;;;;16.15;5.43;;;;;;;21.55;79.58;97823.13;5069705;28;20025;-81
2021/06/24 02:58:50;;;;;;;20.75;7.10;;;;;;;21.45;80.36;97820.94;5071657;28;20024;-81
2021/06/24 03:01:17;;;;;;;18.63;6.97;;;;;;;21.50;80.54;97834.56;5080780;28;20048;-80
2021/06/24 03:03:43;;;;;;;19.63;6.43;;;;;;;21.34;81.05;97815.97;5070436;28;20082;-79
2021/06/24 03:06:09;;;;;;;15.77;6.28;;;;;;;21.20;81.33;97818.50;5069278;28;20025;-79
2021/06/24 03:08:34;;;;;;;15.05;6.22;;;;;;;21.35;81.29;97839.06;5070318;28;20440;-79
2021/06/24 03:11:00;;;;;;;17.00;8.00;;;;;;;21.44;81.38;97838.81;5069660;28;20028;-81
2021/06/24 03:13:25;;;;;;;15.40;6.57;;;;;;;21.48;81.56;97837.72;5069460;28;20396;-79
2021/06/24 03:15:50;;;;;;;16.23;7.47;;;;;;;21.55;81.66;97831.47;5068715;28;20052;-79
2021/06/24 03:18:16;;;;;;;17.77;6.10;;;;;;;21.44;81.18;97836.03;5068866;28;20473;-80
2021/06/24 03:20:42;;;;;;;16.77;7.32;;;;;;;21.40;81.54;97840.72;5070224;28;20378;-80
2021/06/24 03:23:07;;;;;;;17.63;6.55;;;;;;;21.55;81.14;97837.06;5072945;28;20035;-80
2021/06/24 03:25:32;;;;;;;28.33;9.13;;;;;;;21.55;80.59;97829.47;5072263;28;20032;-79
2021/06/24 03:27:58;;;;;;;19.30;6.60;;;;;;;21.66;80.19;97851.97;5072398;28;20105;-81
2021/06/24 03:30:24;;;;;;;23.63;6.60;;;;;;;21.48;81.47;97848.84;5072317;28;20032;-79
2021/06/24 03:32:50;;;;;;;14.80;6.35;;;;;;;21.40;80.79;97840.72;5071943;28;20097;-79
2021/06/24 03:35:16;;;;;;;17.90;7.13;;;;;;;21.43;81.44;97845.53;5072204;28;20087;-81
2021/06/24 03:37:42;;;;;;;18.38;6.28;;;;;;;21.43;81.15;97842.75;5073504;28;20036;-79
2021/06/24 03:40:09;;;;;;;13.90;6.28;;;;;;;21.35;81.70;97853.78;5072762;28;20070;-80
2021/06/24 03:42:35;;;;;;;17.02;5.72;;;;;;;21.46;81.53;97853.19;5073071;28;20500;-79
2021/06/24 03:45:04;;;;;;;11.43;5.43;;;;;;;21.61;79.86;97849.50;5073505;28;20059;-79
2021/06/24 03:47:30;;;;;;;15.65;7.45;;;;;;;21.67;79.69;97848.00;5073550;28;20036;-80
2021/06/24 03:49:55;;;;;;;23.83;6.32;;;;;;;21.96;78.43;97855.69;5072034;28;20033;-79
2021/06/24 03:52:20;;;;;;;16.73;6.32;;;;;;;22.09;77.75;97865.47;5072128;28;20029;-79
2021/06/24 03:54:46;;;;;;;23.17;8.63;;;;;;;21.88;77.54;97856.72;5071773;28;20063;-79
2021/06/24 03:57:11;;;;;;;18.98;6.63;;;;;;;22.01;78.32;97862.94;5071810;28;20024;-79
2021/06/24 03:59:37;;;;;;;18.50;7.22;;;;;;;21.99;77.16;97854.94;5072815;28;20040;-79
2021/06/24 04:02:03;;;;;;;24.75;8.10;;;;;;;22.28;75.68;97853.44;5054939;28;20052;-81
2021/06/24 04:04:29;;;;;;;19.92;5.93;;;;;;;22.45;74.19;97860.47;5051812;28;20032;-79
2021/06/24 04:06:54;;;;;;;18.02;6.38;;;;;;;22.64;74.10;97868.72;5066778;28;20034;-80
2021/06/24 04:09:20;;;;;;;22.52;7.85;;;;;;;22.68;72.88;97866.81;5071274;28;20389;-79
2021/06/24 04:11:45;;;;;;;15.73;5.68;;;;;;;22.75;72.19;97862.13;5072104;28;20028;-81
2021/06/24 04:14:11;;;;;;;21.10;5.70;;;;;;;22.48;73.71;97859.72;5065818;28;20115;-80
2021/06/24 04:16:36;;;;;;;21.70;6.68;;;;;;;22.68;72.45;97862.03;5051407;28;20075;-78
2021/06/24 04:19:02;;;;;;;23.23;6.97;;;;;;;22.69;75.35;97863.66;5058148;28;20036;-78
2021/06/24 04:21:27;;;;;;;19.77;7.28;;;;;;;22.77;74.56;97864.56;5051781;28;20029;-80
2021/06/24 04:23:53;;;;;;;22.45;7.18;;;;;;;22.74;75.35;97868.88;5051236;28;20025;-79
2021/06/24 04:26:18;;;;;;;23.55;8.25;;;;;;;22.94;73.59;97872.34;5051307;28;20025;-80
2021/06/24 04:28:44;;;;;;;16.38;6.65;;;;;;;23.02;74.65;97871.28;5050891;28;20084;-80
2021/06/24 04:31:09;;;;;;;21.10;7.55;;;;;;;22.94;76.52;97880.72;5050920;28;20025;-80
2021/06/24 04:33:35;;;;;;;24.73;8.00;;;;;;;22.62;78.12;97873.84;5050356;28;20031;-79
2021/06/24 04:36:01;;;;;;;25.55;6.38;;;;;;;22.77;77.67;97867.34;5051766;28;20033;-80
2021/06/24 04:38:26;;;;;;;18.38;7.15;;;;;;;23.17;76.77;97861.09;5052740;28;20025;-79
2021/06/24 04:40:52;;;;;;;22.33;7.13;;;;;;;23.00;78.22;97865.25;5069447;28;20111;-79
2021/06/24 04:43:17;;;;;;;23.58;8.80;;;;;;;23.15;77.30;97874.63;5070885;28;20036;-80
2021/06/24 04:45:43;;;;;;;31.58;8.65;;;;;;;23.15;77.70;97869.06;5072085;28;20063;-83
2021/06/24 04:48:08;;;;;;;18.48;9.07;;;;;;;23.14;77.64;97865.44;5070475;28;20032;-82
2021/06/24 04:50:36;;;;;;;28.60;9.90;;;;;;;23.13;77.56;97872.22;5072272;28;20061;-82
2021/06/24 04:53:01;;;;;;;23.58;10.43;;;;;;;23.26;77.11;97889.50;5072239;28;20396;-74
2021/06/24 04:55:27;;;;;;;14.60;7.45;;;;;;;23.18;77.19;97888.59;5071921;28;20031;-74
2021/06/24 04:57:52;;;;;;;20.17;7.38;;;;;;;23.15;77.79;97885.81;5071929;28;20024;-78
2021/06/24 05:00:18;;;;;;;33.90;11.40;;;;;;;23.40;77.06;97882.13;5072050;28;20028;-77
2021/06/24 05:02:43;;;;;;;25.60;10.23;;;;;;;23.27;77.00;97877.16;5070833;28;20037;-74
2021/06/24 05:05:09;;;;;;;29.45;10.25;;;;;;;23.32;77.25;97880.41;5071244;28;20021;-72
2021/06/24 05:07:36;;;;;;;23.27;9.65;;;;;;;23.56;76.40;97884.69;5064582;28;20424;-74
2021/06/24 05:10:03;;;;;;;17.70;11.50;;;;;;;23.56;75.72;97886.69;5051125;28;20473;-72
2021/06/24 05:12:29;;;;;;;23.33;11.10;;;;;;;23.44;75.77;97880.19;5051460;28;21783;-73
2021/06/24 05:14:54;;;;;;;30.88;16.10;;;;;;;23.69;75.65;97885.25;5053387;28;20056;-75
2021/06/24 05:17:19;;;;;;;21.95;8.30;;;;;;;23.71;75.18;97874.50;5059423;28;20474;-72
2021/06/24 05:19:45;;;;;;;19.95;11.27;;;;;;;23.81;75.58;97879.38;5060775;28;20114;-73
2021/06/24 05:22:11;;;;;;;24.77;11.27;;;;;;;23.73;74.53;97883.28;5067486;28;20032;-74
2021/06/24 05:24:38;;;;;;;24.88;9.63;;;;;;;24.00;73.53;97888.34;5060881;28;20028;-73
2021/06/24 05:27:04;;;;;;;33.65;8.55;;;;;;;24.30;72.00;97879.06;5057639;28;20052;-73
2021/06/24 05:29:30;;;;;;;19.13;8.30;;;;;;;24.50;72.74;97884.00;5061806;28;20121;-81
2021/06/24 05:31:55;;;;;;;25.98;9.18;;;;;;;24.87;70.03;97885.88;5062633;28;20098;-79
2021/06/24 05:34:21;;;;;;;19.40;8.40;;;;;;;24.94;69.68;97892.31;5064160;28;20028;-81
2021/06/24 05:36:46;;;;;;;26.25;9.10;;;;;;;25.11;68.55;97893.63;5069464;28;20016;-78
2021/06/24 05:39:11;;;;;;;24.95;8.70;;;;;;;25.42;68.09;97894.94;5067469;28;20411;-78
2021/06/24 05:41:37;;;;;;;25.45;8.77;;;;;;;25.04;67.74;97896.38;5058704;28;20021;-78
2021/06/24 05:44:03;;;;;;;22.33;7.60;;;;;;;25.19;67.33;97900.84;5056620;28;20039;-77
2021/06/24 05:46:28;;;;;;;22.27;8.63;;;;;;;25.33;66.71;97902.91;5058612;28;20032;-78
2021/06/24 05:48:54;;;;;;;22.45;7.10;;;;;;;25.41;66.25;97905.34;5054507;28;20035;-78
2021/06/24 05:51:22;;;;;;;20.50;7.68;;;;;;;25.42;66.62;97906.97;5059208;28;20074;-77
2021/06/24 05:53:48;;;;;;;13.48;7.05;;;;;;;25.53;67.20;97901.41;5059789;28;20048;-78
2021/06/24 05:56:13;;;;;;;18.52;8.05;;;;;;;25.77;66.97;97888.69;5058437;28;20107;-79
2021/06/24 05:58:39;;;;;;;15.52;7.43;;;;;;;25.97;65.63;97885.09;5059100;28;20488;-77
2021/06/24 06:01:04;;;;;;;24.80;9.40;;;;;;;25.68;66.04;97888.25;5057290;28;20052;-78
2021/06/24 06:03:29;;;;;;;21.95;8.88;;;;;;;25.71;65.62;97884.66;5052378;28;20036;-76
2021/06/24 06:05:56;;;;;;;19.75;8.70;;;;;;;25.86;66.58;97880.69;5050954;28;20044;-78
2021/06/24 06:08:22;;;;;;;25.20;8.50;;;;;;;25.57;67.04;97885.41;5050528;28;20496;-78
2021/06/24 06:10:48;;;;;;;27.50;8.50;;;;;;;25.97;66.50;97887.91;5049671;28;20086;-76
2021/06/24 06:13:14;;;;;;;22.20;9.38;;;;;;;26.46;65.18;97889.97;5051169;28;20029;-75
2021/06/24 06:15:42;;;;;;;35.60;9.55;;;;;;;26.60;63.03;97887.16;5052614;28;20107;-74
2021/06/24 06:18:17;;;;;;;16.25;8.25;;;;;;;26.17;63.13;97891.16;5051080;28;20021;-74
2021/06/24 06:20:44;;;;;;;27.50;10.80;;;;;;;26.13;64.58;97892.31;5049017;28;20113;-74
2021/06/24 06:23:10;;;;;;;22.38;8.43;;;;;;;26.28;64.08;97886.34;5051297;28;20063;-74
2021/06/24 06:25:35;;;;;;;23.35;9.82;;;;;;;26.61;63.84;97883.16;5049968;28;20033;-75
2021/06/24 06:28:00;;;;;;;19.17;9.38;;;;;;;26.18;62.52;97892.78;5050745;28;20029;-74
2021/06/24 06:30:26;;;;;;;22.33;8.43;;;;;;;26.22;65.82;97895.59;5048574;28;20029;-73
2021/06/24 06:32:53;;;;;;;21.92;9.02;;;;;;;26.43;63.04;97867.53;5050004;28;20115;-76
2021/06/24 06:35:18;;;;;;;18.25;6.82;;;;;;;26.91;62.85;97884.75;5049151;28;20025;-77
2021/06/24 06:37:44;;;;;;;18.95;7.28;;;;;;;26.73;61.21;97892.34;5050802;28;20372;-78
2021/06/24 06:40:10;;;;;;;20.60;8.43;;;;;;;26.56;62.36;97875.13;5050348;28;20037;-78
2021/06/24 06:42:35;;;;;;;14.15;8.05;;;;;;;26.77;61.53;97879.91;5049686;28;20025;-77
2021/06/24 06:45:00;;;;;;;23.40;6.00;;;;;;;27.08;60.44;97881.88;5053132;28;20116;-76
2021/06/24 06:47:26;;;;;;;19.88;7.97;;;;;;;27.23;60.44;97879.81;5061717;28;20104;-76
2021/06/24 06:49:51;;;;;;;25.15;6.97;;;;;;;27.11;60.80;97875.44;5050538;28;20028;-79
2021/06/24 06:52:17;;;;;;;21.92;7.05;;;;;;;27.32;58.60;97876.53;5051089;28;20021;-77
2021/06/24 06:54:42;;;;;;;29.77;7.68;;;;;;;27.27;57.24;97889.03;5051241;28;20094;-77
2021/06/24 06:57:07;;;;;;;20.10;6.05;;;;;;;27.79;56.63;97887.19;5053066;28;20432;-76
2021/06/24 06:59:35;;;;;;;18.85;6.38;;;;;;;28.21;54.32;97880.50;5054103;28;20041;-78
2021/06/24 07:02:01;;;;;;;21.75;7.78;;;;;;;28.18;56.50;97872.91;5053833;28;20052;-77
2021/06/24 07:04:26;;;;;;;23.65;6.22;;;;;;;27.70;58.43;97886.03;5052915;28;20425;-75
2021/06/24 07:06:51;;;;;;;17.35;6.72;;;;;;;27.38;57.33;97881.34;5053586;28;20021;-77
2021/06/24 07:09:18;;;;;;;22.23;6.45;;;;;;;27.73;56.67;97879.59;5054931;28;20032;-76
2021/06/24 07:11:43;;;;;;;24.20;6.47;;;;;;;27.99;55.57;97882.66;5053848;28;20041;-78
2021/06/24 07:14:09;;;;;;;18.67;6.45;;;;;;;28.28;55.10;97894.53;5053901;28;20029;-75
2021/06/24 07:16:34;;;;;;;29.85;7.05;;;;;;;28.05;54.10;97883.84;5053622;28;20041;-80
2021/06/24 07:19:00;;;;;;;21.80;6.93;;;;;;;28.34;54.17;97869.56;5054667;28;20385;-79
2021/06/24 07:21:25;;;;;;;23.20;7.05;;;;;;;28.10;56.56;97876.97;5052641;28;20037;-80
2021/06/24 07:23:51;;;;;;;17.73;7.63;;;;;;;27.72;54.30;97872.38;5054146;28;20029;-80
2021/06/24 07:26:16;;;;;;;21.88;6.68;;;;;;;28.18;52.04;97884.16;5052950;28;20504;-79
2021/06/24 07:28:43;;;;;;;18.75;6.80;;;;;;;27.87;51.15;97890.78;5053914;28;20017;-78
2021/06/24 07:31:08;;;;;;;17.77;5.70;;;;;;;27.93;50.82;97886.31;5053841;28;20474;-78
2021/06/24 07:33:34;;;;;;;24.98;5.63;;;;;;;27.76;53.29;97890.81;5053651;28;20033;-78
2021/06/24 07:36:01;;;;;;;38.67;6.68;;;;;;;27.69;52.10;97890.06;5053776;28;20025;-78
2021/06/24 07:38:28;;;;;;;24.08;6.43;;;;;;;28.48;50.94;97898.38;5052475;28;20481;-79
2021/06/24 07:40:54;;;;;;;20.23;6.70;;;;;;;28.84;50.45;97895.25;5035860;28;20066;-79
2021/06/24 07:43:21;;;;;;;23.10;6.05;;;;;;;28.29;52.72;97884.09;5054923;28;20036;-79
2021/06/24 07:45:46;;;;;;;24.10;6.03;;;;;;;28.54;52.47;97879.00;5052530;28;20194;-78
2021/06/24 07:48:11;;;;;;;31.98;7.72;;;;;;;28.72;50.11;97887.34;5052650;28;20486;-78
2021/06/24 07:50:37;;;;;;;24.23;6.43;;;;;;;29.41;48.78;97882.19;5053093;28;20037;-78
2021/06/24 07:53:04;;;;;;;33.20;7.35;;;;;;;29.83;49.49;97880.00;5052149;28;20033;-78
2021/06/24 07:55:36;;;;;;;30.67;5.55;;;;;;;29.72;48.92;97889.41;5053141;28;20393;-79
2021/06/24 07:58:05;;;;;;;26.15;6.50;;;;;;;29.06;51.57;97899.47;5053303;28;20024;-78
2021/06/24 08:00:32;;;;;;;22.08;6.30;;;;;;;29.25;48.86;97890.41;5051790;28;20025;-78
2021/06/24 08:02:58;;;;;;;17.08;5.90;;;;;;;29.83;46.55;97889.28;5053300;28;20033;-78
2021/06/24 08:05:23;;;;;;;18.80;4.82;;;;;;;30.60;45.80;97897.78;5052931;28;20089;-78
2021/06/24 08:07:49;;;;;;;27.45;6.07;;;;;;;30.10;45.39;97892.13;5052067;28;20501;-76
2021/06/24 08:10:16;;;;;;;28.95;6.70;;;;;;;30.64;44.48;97895.69;5052258;28;20033;-78
2021/06/24 08:12:43;;;;;;;25.20;6.50;;;;;;;30.40;44.70;97899.75;5052456;28;20120;-78
2021/06/24 08:15:10;;;;;;;23.85;7.10;;;;;;;30.44;44.74;97901.28;5052814;28;20056;-78
2021/06/24 08:17:36;;;;;;;22.60;5.85;;;;;;;30.32;43.63;97890.56;5051794;28;20025;-78
2021/06/24 08:20:03;;;;;;;25.80;7.43;;;;;;;30.68;41.97;97891.59;5051144;28;20393;-78
2021/06/24 08:22:29;;;;;;;22.65;5.25;;;;;;;31.19;41.13;97881.78;5051651;28;20560;-78
2021/06/24 08:24:54;;;;;;;31.40;5.85;;;;;;;31.46;42.47;97883.66;5052493;28;20136;-77
2021/06/24 08:27:19;;;;;;;21.48;5.22;;;;;;;31.89;40.48;97886.41;5051344;28;20105;-77
2021/06/24 08:29:45;;;;;;;20.17;5.22;;;;;;;31.97;40.82;97885.00;5053074;28;20025;-77
2021/06/24 08:32:11;;;;;;;31.88;6.00;;;;;;;32.64;39.85;97887.03;5052212;28;20029;-77
2021/06/24 08:34:36;;;;;;;33.72;7.13;;;;;;;32.93;39.45;97883.44;5052357;28;20032;-77
2021/06/24 08:37:02;;;;;;;25.02;6.30;;;;;;;33.07;38.92;97885.91;5050969;28;20029;-75
2021/06/24 08:39:28;;;;;;;23.63;7.32;;;;;;;33.19;37.15;97880.34;5052110;28;20033;-76
2021/06/24 08:41:54;;;;;;;26.92;8.82;;;;;;;33.50;38.10;97883.50;5050473;28;20035;-76
2021/06/24 08:44:19;;;;;;;23.38;6.60;;;;;;;33.13;37.76;97881.31;5050146;28;20365;-77
2021/06/24 08:46:45;;;;;;;27.80;6.90;;;;;;;33.46;36.97;97877.13;5051822;28;20042;-76
2021/06/24 08:49:11;;;;;;;24.00;5.18;;;;;;;33.28;37.34;97888.19;5050856;28;20035;-75
2021/06/24 08:51:36;;;;;;;24.67;6.35;;;;;;;32.36;38.17;97863.03;5052951;28;20102;-76
2021/06/24 08:54:02;;;;;;;16.92;5.78;;;;;;;32.57;37.14;97892.09;5052360;28;20510;-76
2021/06/24 08:56:28;;;;;;;20.50;5.53;;;;;;;32.62;38.89;97892.34;5050641;28;20032;-75
2021/06/24 08:58:56;;;;;;;21.10;5.43;;;;;;;32.56;37.89;97894.13;5052193;28;20029;-76
2021/06/24 09:01:50;;;;;;;29.88;6.20;;;;;;;31.89;39.36;97892.06;5051542;28;20076;-76
2021/06/24 09:04:17;;;;;;;23.83;5.88;;;;;;;31.33;40.12;97875.81;5052017;28;20111;-76
2021/06/24 09:06:43;;;;;;;28.85;7.07;;;;;;;32.02;39.28;97892.97;5055076;28;20481;-78
2021/06/24 09:09:08;;;;;;;23.58;5.80;;;;;;;32.14;37.88;97900.81;5062827;28;20098;-77
2021/06/24 09:11:34;;;;;;;40.60;6.65;;;;;;;33.08;36.27;97896.81;5051498;28;20029;-77
2021/06/24 09:14:02;;;;;;;42.67;7.15;;;;;;;33.50;36.13;97908.22;5052118;28;20448;-75
2021/06/24 09:16:31;;;;;;;21.05;6.10;;;;;;;33.63;34.79;97904.22;5051528;28;20021;-77
2021/06/24 09:19:22;;;;;;;24.38;5.93;;;;;;;34.06;35.10;97902.91;5049341;28;20025;-77
2021/06/24 09:21:57;;;;;;;33.70;6.90;;;;;;;34.51;34.48;97912.06;5051730;28;20401;-77
2021/06/24 09:24:33;;;;;;;21.70;5.00;;;;;;;34.81;33.72;97900.06;5051653;28;20036;-78
2021/06/24 09:27:03;;;;;;;20.35;6.05;;;;;;;34.86;34.24;97905.22;5050925;28;20270;-76
2021/06/24 09:29:29;;;;;;;30.77;6.45;;;;;;;34.63;36.22;97904.78;5051275;28;20021;-76
2021/06/24 09:31:59;;;;;;;23.70;5.75;;;;;;;34.67;34.50;97906.28;5049525;28;20421;-77
2021/06/24 09:34:26;;;;;;;31.30;6.18;;;;;;;34.53;34.43;97897.38;5051158;28;20032;-77
2021/06/24 09:36:55;;;;;;;21.67;4.85;;;;;;;33.69;34.03;97878.91;5049888;28;20075;-76
2021/06/24 09:39:36;;;;;;;27.73;7.65;;;;;;;32.71;36.36;97883.22;5052990;28;20025;-77
2021/06/24 09:42:10;;;;;;;17.92;5.90;;;;;;;32.78;35.75;97883.03;5051161;28;20393;-78
2021/06/24 09:44:40;;;;;;;21.92;4.75;;;;;;;32.95;35.96;97886.66;5051028;28;20036;-76
2021/06/24 09:47:21;;;;;;;24.92;6.30;;;;;;;33.24;35.36;97881.81;5050965;28;20116;-75
2021/06/24 09:50:18;;;;;;;19.33;5.05;;;;;;;33.70;35.54;97884.16;5050979;28;20057;-75
2021/06/24 09:52:44;;;;;;;35.25;6.90;;;;;;;32.52;37.04;97876.38;5050735;28;20029;-76
2021/06/24 09:55:14;;;;;;;26.20;5.70;;;;;;;32.47;36.92;97876.13;5050323;28;20029;-76
2021/06/24 09:57:40;;;;;;;25.98;6.43;;;;;;;32.53;36.87;97880.03;5049211;28;20033;-77
2021/06/24 10:00:19;;;;;;;30.27;6.45;;;;;;;33.19;35.46;97873.84;5049637;28;20025;-76
2021/06/24 10:03:18;;;;;;;19.23;4.95;;;;;;;33.72;33.93;97878.00;5050528;28;20136;-76
2021/06/24 10:05:45;;;;;;;23.92;5.50;;;;;;;34.00;34.30;97879.16;5038414;28;20072;-76
2021/06/24 10:08:12;;;;;;;28.25;6.18;;;;;;;33.81;35.60;97878.94;5049301;28;20028;-73
2021/06/24 10:10:40;;;;;;;28.77;8.45;;;;;;;34.11;34.67;97879.69;5050732;28;20469;-74
2021/06/24 10:13:06;;;;;;;27.25;4.90;;;;;;;34.09;34.51;97880.09;5051534;28;20684;-72
2021/06/24 10:15:34;;;;;;;22.67;5.72;;;;;;;34.25;33.62;97871.47;5054364;28;20026;-73
2021/06/24 10:18:00;;;;;;;29.17;7.38;;;;;;;34.32;34.15;97870.47;5057816;28;20066;-72
2021/06/24 10:20:29;;;;;;;29.85;6.13;;;;;;;34.28;33.94;97866.94;5055684;28;20025;-72
2021/06/24 10:23:00;;;;;;;30.63;6.53;;;;;;;33.90;34.76;97867.69;5059840;28;20504;-73
2021/06/24 10:25:26;;;;;;;24.50;7.40;;;;;;;33.93;35.42;97866.78;5056300;28;20029;-72
2021/06/24 10:27:54;;;;;;;29.63;6.15;;;;;;;33.62;35.21;97867.75;5056531;28;20055;-75
2021/06/24 10:30:21;;;;;;;24.17;5.97;;;;;;;33.57;35.44;97860.59;5054646;28;20562;-74
2021/06/24 10:33:11;;;;;;;30.58;6.78;;;;;;;33.33;36.00;97868.56;5059156;28;20484;-73
2021/06/24 10:35:40;;;;;;;26.20;5.00;;;;;;;33.13;36.83;97864.31;5064754;28;20481;-74
2021/06/24 10:38:10;;;;;;;24.40;5.85;;;;;;;33.26;36.69;97860.28;5061676;28;20032;-73
2021/06/24 10:40:38;;;;;;;18.85;5.30;;;;;;;32.92;36.88;97859.19;5065681;28;21114;-73
2021/06/24 10:43:07;;;;;;;23.45;5.32;;;;;;;32.60;37.89;97860.03;5068120;28;20091;-75
2021/06/24 10:45:34;;;;;;;24.77;7.60;;;;;;;32.49;37.63;97856.63;5063682;28;20029;-74
2021/06/24 10:48:26;;;;;;;22.42;4.90;;;;;;;32.69;37.72;97846.84;5063604;28;20027;-75
2021/06/24 10:51:06;;;;;;;28.48;5.53;;;;;;;33.25;36.98;97844.50;5062213;28;20871;-73
2021/06/24 10:53:35;;;;;;;20.13;4.90;;;;;;;33.18;36.15;97850.38;5061042;28;20071;-74
2021/06/24 10:56:02;;;;;;;19.48;6.10;;;;;;;33.63;35.93;97838.94;5063273;28;20119;-73
2021/06/24 10:58:30;;;;;;;22.67;5.88;;;;;;;34.21;34.99;97847.28;5063796;28;20025;-73
2021/06/24 11:00:57;;;;;;;30.60;5.25;;;;;;;33.46;35.97;97833.78;5059653;28;20049;-74
2021/06/24 11:03:25;;;;;;;27.70;8.55;;;;;;;33.72;36.25;97838.25;5063191;28;20033;-73
2021/06/24 11:05:53;;;;;;;17.60;6.50;;;;;;;34.05;35.24;97841.69;5064088;28;20059;-73
2021/06/24 11:08:27;;;;;;;18.17;4.68;;;;;;;34.75;34.09;97841.41;5060081;28;20108;-74
2021/06/24 11:10:59;;;;;;;23.25;5.60;;;;;;;35.08;34.18;97836.19;5059139;28;20021;-74
2021/06/24 11:19:14;;;;;;;36.03;6.00;;;;;;;33.89;34.04;97832.03;5060517;28;20051;-72
2021/06/24 11:21:39;;;;;;;25.48;5.18;;;;;;;34.13;34.40;97829.69;5059896;28;20043;-73
2021/06/24 11:24:04;;;;;;;20.38;5.13;;;;;;;34.23;33.84;97820.00;5060673;28;20026;-73
2021/06/24 11:26:38;;;;;;;32.50;5.25;;;;;;;34.60;33.11;97818.38;5061405;28;20540;-72
2021/06/24 11:29:07;;;;;;;32.70;5.75;;;;;;;34.78;33.25;97815.69;5068092;28;20054;-74